sensor_id;sensor_type;location;lat;lon;timestamp;pressure;altitude;pressure_sealevel;temperature;humidity
22181;BME280;11256;50.830;12.834;2024-02-21T00:01:17;98276.69;;;7.82;72.44
22181;BME280;11256;50.830;12.834;2024-02-21T00:06:17;98269.41;;;7.83;72.21
22181;BME280;11256;50.830;12.834;2024-02-21T00:11:17;98261.25;;;7.78;72.41
22181;BME280;11256;50.830;12.834;2024-02-21T00:16:18;98262.91;;;7.79;72.46
22181;BME280;11256;50.830;12.834;2024-02-21T00:21:18;98250.44;;;7.78;72.50
22181;BME280;11256;50.830;12.834;2024-02-21T00:26:19;98250.13;;;7.74;72.18
22181;BME280;11256;50.830;12.834;2024-02-21T00:31:19;98244.97;;;7.73;72.63
22181;BME280;11256;50.830;12.834;2024-02-21T00:36:19;98229.38;;;7.75;72.58
22181;BME280;11256;50.830;12.834;2024-02-21T00:41:20;98224.22;;;7.73;72.64
22181;BME280;11256;50.830;12.834;2024-02-21T00:46:20;98220.72;;;7.73;72.38
22181;BME280;11256;50.830;12.834;2024-02-21T00:51:20;98220.72;;;7.73;72.70
22181;BME280;11256;50.830;12.834;2024-02-21T00:56:21;98201.78;;;7.68;72.47
22181;BME280;11256;50.830;12.834;2024-02-21T01:01:25;98208.81;;;7.69;72.61
22181;BME280;11256;50.830;12.834;2024-02-21T01:06:25;98198.50;;;7.66;72.79
22181;BME280;11256;50.830;12.834;2024-02-21T01:11:26;98190.66;;;7.64;72.86
22181;BME280;11256;50.830;12.834;2024-02-21T01:16:26;98181.09;;;7.57;72.69
22181;BME280;11256;50.830;12.834;2024-02-21T01:21:26;98176.28;;;7.59;72.59
22181;BME280;11256;50.830;12.834;2024-02-21T01:26:27;98183.31;;;7.60;72.95
22181;BME280;11256;50.830;12.834;2024-02-21T01:31:27;98162.22;;;7.57;72.61
22181;BME280;11256;50.830;12.834;2024-02-21T01:36:28;98165.50;;;7.59;72.71
22181;BME280;11256;50.830;12.834;2024-02-21T01:41:31;98155.22;;;7.56;72.79
22181;BME280;11256;50.830;12.834;2024-02-21T01:46:32;98148.19;;;7.55;72.93
22181;BME280;11256;50.830;12.834;2024-02-21T01:51:32;98134.41;;;7.51;72.84
22181;BME280;11256;50.830;12.834;2024-02-21T01:56:33;98132.00;;;7.55;72.75
22181;BME280;11256;50.830;12.834;2024-02-21T02:01:33;98130.88;;;7.51;73.05
22181;BME280;11256;50.830;12.834;2024-02-21T02:06:34;98129.84;;;7.52;72.80
22181;BME280;11256;50.830;12.834;2024-02-21T02:11:35;98114.22;;;7.54;73.09
22181;BME280;11256;50.830;12.834;2024-02-21T02:16:36;98107.06;;;7.43;73.36
22181;BME280;11256;50.830;12.834;2024-02-21T02:21:39;98113.66;;;7.52;73.51
22181;BME280;11256;50.830;12.834;2024-02-21T02:26:42;98108.25;;;7.52;73.33
22181;BME280;11256;50.830;12.834;2024-02-21T02:31:42;98100.16;;;7.52;73.35
22181;BME280;11256;50.830;12.834;2024-02-21T02:36:43;98099.59;;;7.50;73.29
22181;BME280;11256;50.830;12.834;2024-02-21T02:41:43;98064.63;;;7.33;73.57
22181;BME280;11256;50.830;12.834;2024-02-21T02:46:43;98070.63;;;7.40;73.41
22181;BME280;11256;50.830;12.834;2024-02-21T02:51:44;98081.78;;;7.49;73.32
22181;BME280;11256;50.830;12.834;2024-02-21T02:56:44;98053.63;;;7.40;73.52
22181;BME280;11256;50.830;12.834;2024-02-21T03:01:44;98068.78;;;7.46;73.30
22181;BME280;11256;50.830;12.834;2024-02-21T03:06:45;98070.44;;;7.47;73.12
22181;BME280;11256;50.830;12.834;2024-02-21T03:11:45;98056.38;;;7.45;73.17
22181;BME280;11256;50.830;12.834;2024-02-21T03:16:45;98059.13;;;7.50;73.62
22181;BME280;11256;50.830;12.834;2024-02-21T03:21:46;98055.00;;;7.42;73.58
22181;BME280;11256;50.830;12.834;2024-02-21T03:26:47;98065.00;;;7.42;73.63
22181;BME280;11256;50.830;12.834;2024-02-21T03:31:48;98051.94;;;7.34;73.60
22181;BME280;11256;50.830;12.834;2024-02-21T03:36:48;98065.22;;;7.40;73.62
22181;BME280;11256;50.830;12.834;2024-02-21T03:41:48;98054.16;;;7.37;73.34
22181;BME280;11256;50.830;12.834;2024-02-21T03:46:49;98059.59;;;7.42;74.01
22181;BME280;11256;50.830;12.834;2024-02-21T03:51:49;98058.53;;;7.43;73.78
22181;BME280;11256;50.830;12.834;2024-02-21T03:56:50;98040.09;;;7.35;73.86
22181;BME280;11256;50.830;12.834;2024-02-21T04:01:53;98051.50;;;7.42;73.73
22181;BME280;11256;50.830;12.834;2024-02-21T04:06:54;98057.97;;;7.41;73.59
22181;BME280;11256;50.830;12.834;2024-02-21T04:11:54;98043.66;;;7.40;73.91
22181;BME280;11256;50.830;12.834;2024-02-21T04:16:54;98060.16;;;7.44;73.73
22181;BME280;11256;50.830;12.834;2024-02-21T04:21:55;98040.09;;;7.35;73.75
22181;BME280;11256;50.830;12.834;2024-02-21T04:26:55;98060.16;;;7.44;74.41
22181;BME280;11256;50.830;12.834;2024-02-21T04:31:55;98042.53;;;7.36;74.12
22181;BME280;11256;50.830;12.834;2024-02-21T04:36:56;98049.38;;;7.44;73.73
22181;BME280;11256;50.830;12.834;2024-02-21T04:41:57;98049.91;;;7.46;74.55
22181;BME280;11256;50.830;12.834;2024-02-21T04:46:57;98032.69;;;7.47;74.43
22181;BME280;11256;50.830;12.834;2024-02-21T04:51:58;98041.84;;;7.46;74.23
22181;BME280;11256;50.830;12.834;2024-02-21T04:56:58;98032.13;;;7.45;74.13
22181;BME280;11256;50.830;12.834;2024-02-21T05:01:58;98022.41;;;7.44;74.23
22181;BME280;11256;50.830;12.834;2024-02-21T05:07:00;98019.72;;;7.44;74.23
22181;BME280;11256;50.830;12.834;2024-02-21T05:12:01;98022.41;;;7.44;74.52
22181;BME280;11256;50.830;12.834;2024-02-21T05:17:01;98019.16;;;7.42;74.70
22181;BME280;11256;50.830;12.834;2024-02-21T05:22:02;98027.00;;;7.43;74.92
22181;BME280;11256;50.830;12.834;2024-02-21T05:27:02;98008.38;;;7.42;74.71
22181;BME280;11256;50.830;12.834;2024-02-21T05:32:03;98003.00;;;7.42;75.11
22181;BME280;11256;50.830;12.834;2024-02-21T05:37:03;97989.16;;;7.33;74.94
22181;BME280;11256;50.830;12.834;2024-02-21T05:42:04;97999.72;;;7.40;74.82
22181;BME280;11256;50.830;12.834;2024-02-21T05:47:04;97991.06;;;7.38;75.01
22181;BME280;11256;50.830;12.834;2024-02-21T05:52:10;97992.13;;;7.37;75.00
22181;BME280;11256;50.830;12.834;2024-02-21T05:57:10;97958.91;;;7.31;75.39
22181;BME280;11256;50.830;12.834;2024-02-21T06:02:10;97957.09;;;7.37;75.31
22181;BME280;11256;50.830;12.834;2024-02-21T06:07:11;97976.53;;;7.39;75.55
22181;BME280;11256;50.830;12.834;2024-02-21T06:12:11;97964.13;;;7.38;75.67
22181;BME280;11256;50.830;12.834;2024-02-21T06:17:12;97960.94;;;7.41;75.74
22181;BME280;11256;50.830;12.834;2024-02-21T06:22:12;97954.97;;;7.39;75.66
22181;BME280;11256;50.830;12.834;2024-02-21T06:27:12;97951.13;;;7.35;75.71
22181;BME280;11256;50.830;12.834;2024-02-21T06:32:15;97931.66;;;7.28;76.26
22181;BME280;11256;50.830;12.834;2024-02-21T06:37:15;97929.00;;;7.33;76.32
22181;BME280;11256;50.830;12.834;2024-02-21T06:42:15;97919.31;;;7.32;75.68
22181;BME280;11256;50.830;12.834;2024-02-21T06:47:16;97924.44;;;7.33;76.28
22181;BME280;11256;50.830;12.834;2024-02-21T06:52:19;97943.03;;;7.35;76.01
22181;BME280;11256;50.830;12.834;2024-02-21T06:57:24;97946.25;;;7.32;76.37
22181;BME280;11256;50.830;12.834;2024-02-21T07:02:24;97944.63;;;7.31;76.24
22181;BME280;11256;50.830;12.834;2024-02-21T07:07:24;97945.44;;;7.31;76.33
22181;BME280;11256;50.830;12.834;2024-02-21T07:12:25;97947.63;;;7.34;76.38
22181;BME280;11256;50.830;12.834;2024-02-21T07:17:25;97954.41;;;7.37;76.07
22181;BME280;11256;50.830;12.834;2024-02-21T07:22:25;97957.41;;;7.40;76.38
22181;BME280;11256;50.830;12.834;2024-02-21T07:27:26;97958.84;;;7.48;76.24
22181;BME280;11256;50.830;12.834;2024-02-21T07:32:30;97952.97;;;7.56;76.29
22181;BME280;11256;50.830;12.834;2024-02-21T07:37:32;97966.56;;;7.66;76.62
22181;BME280;11256;50.830;12.834;2024-02-21T07:42:32;97961.38;;;7.86;77.77
22181;BME280;11256;50.830;12.834;2024-02-21T07:47:33;97956.19;;;8.42;79.07
22181;BME280;11256;50.830;12.834;2024-02-21T07:52:33;97971.88;;;8.92;77.60
22181;BME280;11256;50.830;12.834;2024-02-21T07:57:34;97963.00;;;9.01;76.27
22181;BME280;11256;50.830;12.834;2024-02-21T08:02:35;97972.97;;;8.96;75.42
22181;BME280;11256;50.830;12.834;2024-02-21T08:07:35;97974.03;;;8.90;74.78
22181;BME280;11256;50.830;12.834;2024-02-21T08:12:35;97978.84;;;8.83;74.65
22181;BME280;11256;50.830;12.834;2024-02-21T08:17:36;97957.19;;;8.73;74.55
22181;BME280;11256;50.830;12.834;2024-02-21T08:22:37;97947.97;;;8.69;74.76
22181;BME280;11256;50.830;12.834;2024-02-21T08:27:38;97929.03;;;8.64;74.28
22181;BME280;11256;50.830;12.834;2024-02-21T08:32:39;97916.16;;;8.81;76.29
22181;BME280;11256;50.830;12.834;2024-02-21T08:37:39;97917.22;;;9.81;79.78
22181;BME280;11256;50.830;12.834;2024-02-21T08:42:39;97912.97;;;11.04;77.22
22181;BME280;11256;50.830;12.834;2024-02-21T08:47:40;97912.03;;;12.15;74.56
22181;BME280;11256;50.830;12.834;2024-02-21T08:52:41;97917.69;;;13.23;72.10
22181;BME280;11256;50.830;12.834;2024-02-21T08:57:42;97933.19;;;14.01;67.49
22181;BME280;11256;50.830;12.834;2024-02-21T09:02:43;97919.13;;;14.13;64.25
22181;BME280;11256;50.830;12.834;2024-02-21T09:07:43;97922.34;;;14.33;62.88
22181;BME280;11256;50.830;12.834;2024-02-21T09:12:44;97927.75;;;14.20;62.00
22181;BME280;11256;50.830;12.834;2024-02-21T09:17:44;97922.91;;;13.80;61.46
22181;BME280;11256;50.830;12.834;2024-02-21T09:22:44;97924.06;;;13.37;61.12
22181;BME280;11256;50.830;12.834;2024-02-21T09:27:45;97917.00;;;12.89;61.58
22181;BME280;11256;50.830;12.834;2024-02-21T09:32:45;97909.78;;;12.51;62.32
22181;BME280;11256;50.830;12.834;2024-02-21T09:37:46;97907.44;;;12.16;62.67
22181;BME280;11256;50.830;12.834;2024-02-21T09:42:47;97901.13;;;11.87;63.17
22181;BME280;11256;50.830;12.834;2024-02-21T09:53:22;97917.13;;;11.45;64.34
22181;BME280;11256;50.830;12.834;2024-02-21T09:58:25;97915.31;;;11.30;64.84
22181;BME280;11256;50.830;12.834;2024-02-21T10:03:27;97918.91;;;11.16;65.17
22181;BME280;11256;50.830;12.834;2024-02-21T10:08:28;97922.72;;;11.05;66.16
22181;BME280;11256;50.830;12.834;2024-02-21T10:13:29;97919.00;;;10.96;65.65
22181;BME280;11256;50.830;12.834;2024-02-21T10:18:30;97916.84;;;10.88;67.07
22181;BME280;11256;50.830;12.834;2024-02-21T10:23:47;97904.38;;;10.87;67.09
22181;BME280;11256;50.830;12.834;2024-02-21T10:28:48;97893.00;;;10.85;66.82
22181;BME280;11256;50.830;12.834;2024-02-21T10:33:58;97889.72;;;10.88;67.22
22181;BME280;11256;50.830;12.834;2024-02-21T10:38:59;97872.09;;;10.90;67.71
22181;BME280;11256;50.830;12.834;2024-02-21T10:44:01;97864.97;;;11.09;67.66
22181;BME280;11256;50.830;12.834;2024-02-21T10:49:18;97851.06;;;11.21;68.04
22181;BME280;11256;50.830;12.834;2024-02-21T10:54:37;97838.53;;;11.30;68.38
22181;BME280;11256;50.830;12.834;2024-02-21T10:59:39;97838.13;;;11.46;69.31
22181;BME280;11256;50.830;12.834;2024-02-21T11:04:40;97837.16;;;11.71;69.36
22181;BME280;11256;50.830;12.834;2024-02-21T11:09:50;97832.72;;;11.85;69.52
22181;BME280;11256;50.830;12.834;2024-02-21T11:14:51;97827.81;;;11.87;70.12
22181;BME280;11256;50.830;12.834;2024-02-21T11:19:52;97815.09;;;12.11;68.58
22181;BME280;11256;50.830;12.834;2024-02-21T11:24:52;97815.97;;;12.30;71.44
22181;BME280;11256;50.830;12.834;2024-02-21T11:29:57;97814.03;;;12.35;71.25
22181;BME280;11256;50.830;12.834;2024-02-21T11:35:00;97792.22;;;12.82;71.05
22181;BME280;11256;50.830;12.834;2024-02-21T11:40:07;97774.53;;;12.85;71.52
22181;BME280;11256;50.830;12.834;2024-02-21T11:45:09;97762.03;;;12.84;71.46
22181;BME280;11256;50.830;12.834;2024-02-21T11:50:10;97763.41;;;13.05;70.03
22181;BME280;11256;50.830;12.834;2024-02-21T11:55:10;97736.19;;;13.23;69.96
22181;BME280;11256;50.830;12.834;2024-02-21T12:00:18;97732.16;;;13.53;69.62
22181;BME280;11256;50.830;12.834;2024-02-21T12:05:22;97712.91;;;13.95;69.39
22181;BME280;11256;50.830;12.834;2024-02-21T12:10:22;97715.41;;;14.05;68.95
22181;BME280;11256;50.830;12.834;2024-02-21T12:15:23;97703.22;;;14.29;67.90
22181;BME280;11256;50.830;12.834;2024-02-21T12:20:25;97685.69;;;14.84;64.20
22181;BME280;11256;50.830;12.834;2024-02-21T12:25:26;97682.41;;;14.96;64.61
22181;BME280;11256;50.830;12.834;2024-02-21T12:30:27;97678.28;;;14.85;63.93
22181;BME280;11256;50.830;12.834;2024-02-21T12:35:27;97669.66;;;15.27;62.50
22181;BME280;11256;50.830;12.834;2024-02-21T12:40:28;97649.72;;;15.48;61.18
22181;BME280;11256;50.830;12.834;2024-02-21T12:45:32;97642.22;;;15.54;58.89
22181;BME280;11256;50.830;12.834;2024-02-21T12:50:34;97637.63;;;15.41;61.51
22181;BME280;11256;50.830;12.834;2024-02-21T12:55:35;97633.88;;;15.89;59.02
22181;BME280;11256;50.830;12.834;2024-02-21T13:00:35;97633.56;;;15.60;61.75
22181;BME280;11256;50.830;12.834;2024-02-21T13:05:36;97610.22;;;15.54;61.53
22181;BME280;11256;50.830;12.834;2024-02-21T13:10:37;97597.75;;;15.62;60.33
22181;BME280;11256;50.830;12.834;2024-02-21T13:15:37;97578.41;;;15.89;59.14
22181;BME280;11256;50.830;12.834;2024-02-21T13:20:43;97584.72;;;16.06;58.97
22181;BME280;11256;50.830;12.834;2024-02-21T13:25:43;97575.16;;;16.51;58.08
22181;BME280;11256;50.830;12.834;2024-02-21T13:30:45;97571.00;;;16.62;57.81
22181;BME280;11256;50.830;12.834;2024-02-21T13:35:46;97557.97;;;16.51;58.35
22181;BME280;11256;50.830;12.834;2024-02-21T13:40:46;97543.47;;;16.59;58.29
22181;BME280;11256;50.830;12.834;2024-02-21T13:45:56;97540.56;;;16.47;58.15
22181;BME280;11256;50.830;12.834;2024-02-21T13:50:57;97522.84;;;16.70;56.28
22181;BME280;11256;50.830;12.834;2024-02-21T13:55:57;97531.34;;;17.02;54.75
22181;BME280;11256;50.830;12.834;2024-02-21T14:00:58;97515.44;;;16.79;55.57
22181;BME280;11256;50.830;12.834;2024-02-21T14:05:58;97524.72;;;17.12;55.10
22181;BME280;11256;50.830;12.834;2024-02-21T14:10:59;97528.91;;;17.09;55.24
22181;BME280;11256;50.830;12.834;2024-02-21T14:16:00;97524.94;;;16.81;55.15
22181;BME280;11256;50.830;12.834;2024-02-21T14:21:01;97514.19;;;16.68;56.58
22181;BME280;11256;50.830;12.834;2024-02-21T14:26:01;97513.00;;;16.94;54.30
22181;BME280;11256;50.830;12.834;2024-02-21T14:31:03;97500.16;;;16.78;55.43
22181;BME280;11256;50.830;12.834;2024-02-21T14:36:06;97501.28;;;16.60;56.82
22181;BME280;11256;50.830;12.834;2024-02-21T14:41:07;97500.00;;;16.66;56.12
22181;BME280;11256;50.830;12.834;2024-02-21T14:46:08;97500.81;;;16.66;54.74
22181;BME280;11256;50.830;12.834;2024-02-21T14:51:08;97485.03;;;16.55;56.04
22181;BME280;11256;50.830;12.834;2024-02-21T14:56:15;97487.47;;;16.48;56.31
22181;BME280;11256;50.830;12.834;2024-02-21T15:01:17;97479.53;;;16.38;55.85
22181;BME280;11256;50.830;12.834;2024-02-21T15:06:18;97495.19;;;16.29;55.92
22181;BME280;11256;50.830;12.834;2024-02-21T15:11:18;97469.75;;;16.11;56.08
22181;BME280;11256;50.830;12.834;2024-02-21T15:16:19;97471.03;;;16.05;55.64
22181;BME280;11256;50.830;12.834;2024-02-21T15:21:19;97447.19;;;15.89;55.14
22181;BME280;11256;50.830;12.834;2024-02-21T15:26:19;97432.25;;;15.78;55.04
22181;BME280;11256;50.830;12.834;2024-02-21T15:31:24;97427.72;;;15.65;54.32
22181;BME280;11256;50.830;12.834;2024-02-21T15:36:24;97424.16;;;15.47;53.87
22181;BME280;11256;50.830;12.834;2024-02-21T15:41:25;97399.81;;;15.29;54.47
22181;BME280;11256;50.830;12.834;2024-02-21T15:46:25;97400.91;;;15.11;54.36
22181;BME280;11256;50.830;12.834;2024-02-21T15:51:26;97401.19;;;15.01;54.43
22181;BME280;11256;50.830;12.834;2024-02-21T15:56:26;97378.16;;;14.85;54.52
22181;BME280;11256;50.830;12.834;2024-02-21T16:01:27;97372.03;;;14.71;54.55
22181;BME280;11256;50.830;12.834;2024-02-21T16:06:28;97366.66;;;14.57;54.70
22181;BME280;11256;50.830;12.834;2024-02-21T16:11:28;97361.31;;;14.44;54.60
22181;BME280;11256;50.830;12.834;2024-02-21T16:16:29;97345.94;;;14.26;54.30
22181;BME280;11256;50.830;12.834;2024-02-21T16:21:30;97344.09;;;14.13;54.37
22181;BME280;11256;50.830;12.834;2024-02-21T16:26:34;97327.63;;;13.96;54.88
22181;BME280;11256;50.830;12.834;2024-02-21T16:31:35;97313.38;;;13.77;54.84
22181;BME280;11256;50.830;12.834;2024-02-21T16:36:38;97312.06;;;13.74;54.84
22181;BME280;11256;50.830;12.834;2024-02-21T16:41:39;97291.09;;;13.53;55.00
22181;BME280;11256;50.830;12.834;2024-02-21T16:46:39;97298.78;;;13.51;55.22
22181;BME280;11256;50.830;12.834;2024-02-21T16:51:39;97290.16;;;13.35;55.53
22181;BME280;11256;50.830;12.834;2024-02-21T16:56:40;97266.25;;;13.10;55.70
22181;BME280;11256;50.830;12.834;2024-02-21T17:01:40;97285.91;;;13.07;56.20
22181;BME280;11256;50.830;12.834;2024-02-21T17:06:41;97285.81;;;12.99;55.85
22181;BME280;11256;50.830;12.834;2024-02-21T17:11:42;97275.75;;;12.86;56.38
22181;BME280;11256;50.830;12.834;2024-02-21T17:16:42;97284.63;;;12.78;56.33
22181;BME280;11256;50.830;12.834;2024-02-21T17:21:43;97286.56;;;12.64;56.86
22181;BME280;11256;50.830;12.834;2024-02-21T17:26:43;97272.97;;;12.50;56.88
22181;BME280;11256;50.830;12.834;2024-02-21T17:31:44;97264.72;;;12.42;55.53
22181;BME280;11256;50.830;12.834;2024-02-21T17:36:44;97232.91;;;12.29;56.30
22181;BME280;11256;50.830;12.834;2024-02-21T17:41:46;97241.78;;;12.21;56.56
22181;BME280;11256;50.830;12.834;2024-02-21T17:46:46;97226.34;;;12.03;56.90
22181;BME280;11256;50.830;12.834;2024-02-21T17:51:46;97227.47;;;12.02;56.72
22181;BME280;11256;50.830;12.834;2024-02-21T17:56:47;97218.91;;;11.95;56.92
22181;BME280;11256;50.830;12.834;2024-02-21T18:01:47;97224.81;;;11.83;56.95
22181;BME280;11256;50.830;12.834;2024-02-21T18:06:48;97216.56;;;11.75;57.18
22181;BME280;11256;50.830;12.834;2024-02-21T18:11:49;97215.13;;;11.64;57.54
22181;BME280;11256;50.830;12.834;2024-02-21T18:16:49;97209.28;;;11.57;57.37
22181;BME280;11256;50.830;12.834;2024-02-21T18:21:50;97187.66;;;11.52;57.25
22181;BME280;11256;50.830;12.834;2024-02-21T18:26:51;97173.16;;;11.43;57.31
22181;BME280;11256;50.830;12.834;2024-02-21T18:31:52;97162.38;;;11.38;57.47
22181;BME280;11256;50.830;12.834;2024-02-21T18:36:52;97151.75;;;11.28;57.66
22181;BME280;11256;50.830;12.834;2024-02-21T18:41:53;97142.88;;;11.22;57.61
22181;BME280;11256;50.830;12.834;2024-02-21T18:46:54;97128.59;;;11.17;57.48
22181;BME280;11256;50.830;12.834;2024-02-21T18:51:55;97134.03;;;11.17;57.33
22181;BME280;11256;50.830;12.834;2024-02-21T18:56:55;97137.63;;;11.12;57.20
22181;BME280;11256;50.830;12.834;2024-02-21T19:01:56;97133.31;;;11.11;56.76
22181;BME280;11256;50.830;12.834;2024-02-21T19:06:56;97124.97;;;11.08;56.66
22181;BME280;11256;50.830;12.834;2024-02-21T19:11:57;97124.53;;;11.01;56.93
22181;BME280;11256;50.830;12.834;2024-02-21T19:16:58;97123.53;;;10.97;56.62
22181;BME280;11256;50.830;12.834;2024-02-21T19:22:00;97124.72;;;10.91;56.34
22181;BME280;11256;50.830;12.834;2024-02-21T19:27:00;97112.84;;;10.87;56.62
22181;BME280;11256;50.830;12.834;2024-02-21T19:32:02;97080.56;;;10.72;56.89
22181;BME280;11256;50.830;12.834;2024-02-21T19:37:03;97097.25;;;10.79;56.92
22181;BME280;11256;50.830;12.834;2024-02-21T19:42:04;97091.31;;;10.77;56.67
22181;BME280;11256;50.830;12.834;2024-02-21T19:47:04;97089.78;;;10.71;56.79
22181;BME280;11256;50.830;12.834;2024-02-21T19:52:05;97073.63;;;10.66;56.75
22181;BME280;11256;50.830;12.834;2024-02-21T19:57:05;97062.28;;;10.64;56.50
22181;BME280;11256;50.830;12.834;2024-02-21T20:02:06;97059.66;;;10.59;56.20
22181;BME280;11256;50.830;12.834;2024-02-21T20:07:06;97041.88;;;10.53;56.48
22181;BME280;11256;50.830;12.834;2024-02-21T20:12:07;97032.72;;;10.49;56.33
22181;BME280;11256;50.830;12.834;2024-02-21T20:17:08;97017.50;;;10.53;55.78
22181;BME280;11256;50.830;12.834;2024-02-21T20:22:09;96998.41;;;10.44;55.49
22181;BME280;11256;50.830;12.834;2024-02-21T20:27:09;96983.44;;;10.33;55.96
22181;BME280;11256;50.830;12.834;2024-02-21T20:32:11;97003.09;;;10.39;55.82
22181;BME280;11256;50.830;12.834;2024-02-21T20:37:11;96992.25;;;10.39;54.96
22181;BME280;11256;50.830;12.834;2024-02-21T20:42:12;96983.63;;;10.37;54.22
22181;BME280;11256;50.830;12.834;2024-02-21T20:47:13;96976.78;;;10.26;54.19
22181;BME280;11256;50.830;12.834;2024-02-21T20:52:13;96976.16;;;10.29;54.20
22181;BME280;11256;50.830;12.834;2024-02-21T20:57:14;96977.28;;;10.28;52.82
22181;BME280;11256;50.830;12.834;2024-02-21T21:02:14;96970.75;;;10.29;53.48
22181;BME280;11256;50.830;12.834;2024-02-21T21:07:15;96951.91;;;10.24;53.89
22181;BME280;11256;50.830;12.834;2024-02-21T21:12:15;96965.13;;;10.25;53.72
22181;BME280;11256;50.830;12.834;2024-02-21T21:17:15;96961.94;;;10.23;53.81
22181;BME280;11256;50.830;12.834;2024-02-21T21:22:16;96950.44;;;10.13;53.86
22181;BME280;11256;50.830;12.834;2024-02-21T21:27:17;96956.31;;;10.20;54.90
22181;BME280;11256;50.830;12.834;2024-02-21T21:32:17;96963.59;;;10.19;55.28
22181;BME280;11256;50.830;12.834;2024-02-21T21:37:18;96946.44;;;10.10;55.19
22181;BME280;11256;50.830;12.834;2024-02-21T21:42:18;96947.16;;;10.16;55.02
22181;BME280;11256;50.830;12.834;2024-02-21T21:47:18;96947.66;;;10.18;55.29
22181;BME280;11256;50.830;12.834;2024-02-21T21:52:19;96927.91;;;10.17;55.13
22181;BME280;11256;50.830;12.834;2024-02-21T21:57:19;96915.34;;;10.08;55.36
22181;BME280;11256;50.830;12.834;2024-02-21T22:02:20;96924.19;;;10.13;55.46
22181;BME280;11256;50.830;12.834;2024-02-21T22:07:25;96914.75;;;10.11;55.92
22181;BME280;11256;50.830;12.834;2024-02-21T22:12:25;96912.84;;;10.11;55.75
22181;BME280;11256;50.830;12.834;2024-02-21T22:17:26;96905.31;;;10.08;55.78
22181;BME280;11256;50.830;12.834;2024-02-21T22:22:26;96874.38;;;9.96;56.09
22181;BME280;11256;50.830;12.834;2024-02-21T22:27:26;96894.19;;;10.10;56.36
22181;BME280;11256;50.830;12.834;2024-02-21T22:32:27;96882.88;;;10.08;56.49
22181;BME280;11256;50.830;12.834;2024-02-21T22:37:28;96886.09;;;10.10;56.93
22181;BME280;11256;50.830;12.834;2024-02-21T22:42:28;96869.84;;;10.10;56.76
22181;BME280;11256;50.830;12.834;2024-02-21T22:47:28;96875.25;;;10.10;56.56
22181;BME280;11256;50.830;12.834;2024-02-21T22:52:29;96860.63;;;10.11;55.82
22181;BME280;11256;50.830;12.834;2024-02-21T22:57:30;96830.69;;;10.02;56.26
22181;BME280;11256;50.830;12.834;2024-02-21T23:02:30;96839.16;;;10.14;56.37
22181;BME280;11256;50.830;12.834;2024-02-21T23:07:31;96808.28;;;10.15;56.17
22181;BME280;11256;50.830;12.834;2024-02-21T23:12:31;96800.97;;;10.16;56.53
22181;BME280;11256;50.830;12.834;2024-02-21T23:17:34;96792.66;;;10.12;57.00
22181;BME280;11256;50.830;12.834;2024-02-21T23:22:34;96777.19;;;10.13;57.07
22181;BME280;11256;50.830;12.834;2024-02-21T23:27:35;96767.78;;;10.10;56.91
22181;BME280;11256;50.830;12.834;2024-02-21T23:32:35;96760.84;;;10.18;57.04
22181;BME280;11256;50.830;12.834;2024-02-21T23:37:36;96731.19;;;10.13;57.11
22181;BME280;11256;50.830;12.834;2024-02-21T23:42:40;96746.16;;;10.24;56.94
22181;BME280;11256;50.830;12.834;2024-02-21T23:47:41;96733.88;;;10.26;56.85
22181;BME280;11256;50.830;12.834;2024-02-21T23:52:41;96719.06;;;10.24;56.82
22181;BME280;11256;50.830;12.834;2024-02-21T23:57:42;96718.06;;;10.20;56.19
